sensor_id;sensor_type;location;lat;lon;timestamp;P1;durP1;ratioP1;P2;durP2;ratioP2
83682;SDS011;73663;51.298;5.802;2024-02-15T00:03:28;12.27;;;6.53;;
83682;SDS011;73663;51.298;5.802;2024-02-15T00:08:39;17.33;;;6.60;;
83682;SDS011;73663;51.298;5.802;2024-02-15T00:13:46;14.50;;;6.80;;
83682;SDS011;73663;51.298;5.802;2024-02-15T00:18:53;12.98;;;6.22;;
83682;SDS011;73663;51.298;5.802;2024-02-15T00:24:01;14.52;;;6.20;;
83682;SDS011;73663;51.298;5.802;2024-02-15T00:29:09;10.80;;;5.68;;
83682;SDS011;73663;51.298;5.802;2024-02-15T00:34:17;14.82;;;6.43;;
83682;SDS011;73663;51.298;5.802;2024-02-15T00:39:24;11.20;;;5.75;;
83682;SDS011;73663;51.298;5.802;2024-02-15T00:44:32;11.48;;;5.35;;
83682;SDS011;73663;51.298;5.802;2024-02-15T00:49:40;13.68;;;4.97;;
83682;SDS011;73663;51.298;5.802;2024-02-15T00:54:50;11.98;;;5.03;;
83682;SDS011;73663;51.298;5.802;2024-02-15T00:59:58;9.68;;;5.18;;
83682;SDS011;73663;51.298;5.802;2024-02-15T01:05:05;12.93;;;5.35;;
83682;SDS011;73663;51.298;5.802;2024-02-15T01:10:13;14.95;;;5.45;;
83682;SDS011;73663;51.298;5.802;2024-02-15T01:15:21;7.72;;;4.80;;
83682;SDS011;73663;51.298;5.802;2024-02-15T01:20:28;8.90;;;4.22;;
83682;SDS011;73663;51.298;5.802;2024-02-15T01:25:36;12.77;;;4.88;;
83682;SDS011;73663;51.298;5.802;2024-02-15T01:30:43;13.60;;;4.80;;
83682;SDS011;73663;51.298;5.802;2024-02-15T01:35:51;14.48;;;4.65;;
83682;SDS011;73663;51.298;5.802;2024-02-15T01:40:58;12.23;;;4.53;;
83682;SDS011;73663;51.298;5.802;2024-02-15T01:46:08;12.07;;;4.50;;
83682;SDS011;73663;51.298;5.802;2024-02-15T01:51:16;10.20;;;4.45;;
83682;SDS011;73663;51.298;5.802;2024-02-15T01:56:25;9.48;;;4.38;;
83682;SDS011;73663;51.298;5.802;2024-02-15T02:01:33;11.27;;;4.28;;
83682;SDS011;73663;51.298;5.802;2024-02-15T02:06:40;8.35;;;3.53;;
83682;SDS011;73663;51.298;5.802;2024-02-15T02:11:48;6.78;;;3.42;;
83682;SDS011;73663;51.298;5.802;2024-02-15T02:16:55;8.60;;;3.50;;
83682;SDS011;73663;51.298;5.802;2024-02-15T02:22:14;13.00;;;4.07;;
83682;SDS011;73663;51.298;5.802;2024-02-15T02:27:23;7.72;;;3.03;;
83682;SDS011;73663;51.298;5.802;2024-02-15T02:32:31;10.20;;;3.50;;
83682;SDS011;73663;51.298;5.802;2024-02-15T02:37:39;6.90;;;3.28;;
83682;SDS011;73663;51.298;5.802;2024-02-15T02:42:53;11.10;;;3.65;;
83682;SDS011;73663;51.298;5.802;2024-02-15T02:48:01;11.52;;;3.80;;
83682;SDS011;73663;51.298;5.802;2024-02-15T02:53:08;9.07;;;3.10;;
83682;SDS011;73663;51.298;5.802;2024-02-15T02:58:16;7.45;;;3.55;;
83682;SDS011;73663;51.298;5.802;2024-02-15T03:03:23;10.20;;;3.72;;
83682;SDS011;73663;51.298;5.802;2024-02-15T03:08:32;10.75;;;3.88;;
83682;SDS011;73663;51.298;5.802;2024-02-15T03:13:40;9.85;;;3.97;;
83682;SDS011;73663;51.298;5.802;2024-02-15T03:18:47;8.60;;;4.15;;
83682;SDS011;73663;51.298;5.802;2024-02-15T03:23:55;9.65;;;4.18;;
83682;SDS011;73663;51.298;5.802;2024-02-15T03:29:02;9.20;;;4.45;;
83682;SDS011;73663;51.298;5.802;2024-02-15T03:34:10;9.13;;;4.10;;
83682;SDS011;73663;51.298;5.802;2024-02-15T03:39:17;9.10;;;3.85;;
83682;SDS011;73663;51.298;5.802;2024-02-15T03:44:25;11.55;;;3.95;;
83682;SDS011;73663;51.298;5.802;2024-02-15T03:49:34;13.88;;;3.90;;
83682;SDS011;73663;51.298;5.802;2024-02-15T03:54:41;9.05;;;3.60;;
83682;SDS011;73663;51.298;5.802;2024-02-15T03:59:49;13.10;;;3.97;;
83682;SDS011;73663;51.298;5.802;2024-02-15T04:04:56;9.00;;;3.20;;
83682;SDS011;73663;51.298;5.802;2024-02-15T04:10:05;8.23;;;2.75;;
83682;SDS011;73663;51.298;5.802;2024-02-15T04:15:13;9.68;;;3.25;;
83682;SDS011;73663;51.298;5.802;2024-02-15T04:20:21;6.47;;;2.80;;
83682;SDS011;73663;51.298;5.802;2024-02-15T04:25:28;6.47;;;2.47;;
83682;SDS011;73663;51.298;5.802;2024-02-15T04:30:36;6.72;;;2.38;;
83682;SDS011;73663;51.298;5.802;2024-02-15T04:35:43;3.42;;;2.15;;
83682;SDS011;73663;51.298;5.802;2024-02-15T04:40:50;5.40;;;2.10;;
83682;SDS011;73663;51.298;5.802;2024-02-15T04:45:58;3.63;;;1.85;;
83682;SDS011;73663;51.298;5.802;2024-02-15T04:51:05;5.35;;;1.77;;
83682;SDS011;73663;51.298;5.802;2024-02-15T04:56:13;5.45;;;2.08;;
83682;SDS011;73663;51.298;5.802;2024-02-15T05:01:23;6.75;;;2.10;;
83682;SDS011;73663;51.298;5.802;2024-02-15T05:06:31;6.03;;;1.92;;
83682;SDS011;73663;51.298;5.802;2024-02-15T05:11:39;4.47;;;2.00;;
83682;SDS011;73663;51.298;5.802;2024-02-15T05:16:49;5.00;;;1.50;;
83682;SDS011;73663;51.298;5.802;2024-02-15T05:21:57;3.75;;;1.67;;
83682;SDS011;73663;51.298;5.802;2024-02-15T05:32:12;4.90;;;1.77;;
83682;SDS011;73663;51.298;5.802;2024-02-15T05:37:19;5.47;;;2.15;;
83682;SDS011;73663;51.298;5.802;2024-02-15T05:42:27;5.60;;;2.03;;
83682;SDS011;73663;51.298;5.802;2024-02-15T05:47:34;5.53;;;2.10;;
83682;SDS011;73663;51.298;5.802;2024-02-15T05:52:42;4.85;;;2.20;;
83682;SDS011;73663;51.298;5.802;2024-02-15T05:57:49;5.68;;;2.05;;
83682;SDS011;73663;51.298;5.802;2024-02-15T06:02:57;4.68;;;1.90;;
83682;SDS011;73663;51.298;5.802;2024-02-15T06:08:05;6.53;;;1.70;;
83682;SDS011;73663;51.298;5.802;2024-02-15T06:13:13;7.28;;;2.45;;
83682;SDS011;73663;51.298;5.802;2024-02-15T06:18:20;4.68;;;1.88;;
83682;SDS011;73663;51.298;5.802;2024-02-15T06:23:31;3.47;;;2.10;;
83682;SDS011;73663;51.298;5.802;2024-02-15T06:28:38;5.55;;;2.63;;
83682;SDS011;73663;51.298;5.802;2024-02-15T06:34:02;4.63;;;2.03;;
83682;SDS011;73663;51.298;5.802;2024-02-15T06:39:26;5.38;;;1.67;;
83682;SDS011;73663;51.298;5.802;2024-02-15T06:44:43;4.15;;;2.00;;
83682;SDS011;73663;51.298;5.802;2024-02-15T06:49:50;5.60;;;1.70;;
83682;SDS011;73663;51.298;5.802;2024-02-15T06:54:58;6.60;;;1.60;;
83682;SDS011;73663;51.298;5.802;2024-02-15T07:00:06;6.82;;;2.03;;
83682;SDS011;73663;51.298;5.802;2024-02-15T07:05:16;8.55;;;2.30;;
83682;SDS011;73663;51.298;5.802;2024-02-15T07:10:25;4.72;;;1.75;;
83682;SDS011;73663;51.298;5.802;2024-02-15T07:15:33;4.03;;;1.88;;
83682;SDS011;73663;51.298;5.802;2024-02-15T07:20:40;7.95;;;2.17;;
83682;SDS011;73663;51.298;5.802;2024-02-15T07:25:49;3.60;;;2.08;;
83682;SDS011;73663;51.298;5.802;2024-02-15T07:30:57;5.80;;;2.03;;
83682;SDS011;73663;51.298;5.802;2024-02-15T07:36:05;6.97;;;2.53;;
83682;SDS011;73663;51.298;5.802;2024-02-15T07:41:12;6.85;;;2.38;;
83682;SDS011;73663;51.298;5.802;2024-02-15T07:46:20;4.72;;;2.28;;
83682;SDS011;73663;51.298;5.802;2024-02-15T07:51:27;7.72;;;2.47;;
83682;SDS011;73663;51.298;5.802;2024-02-15T07:56:34;5.43;;;2.33;;
83682;SDS011;73663;51.298;5.802;2024-02-15T08:01:42;4.80;;;2.67;;
83682;SDS011;73663;51.298;5.802;2024-02-15T08:06:52;6.75;;;3.03;;
83682;SDS011;73663;51.298;5.802;2024-02-15T08:11:59;5.47;;;2.42;;
83682;SDS011;73663;51.298;5.802;2024-02-15T08:17:07;8.70;;;2.85;;
83682;SDS011;73663;51.298;5.802;2024-02-15T08:22:14;5.15;;;2.30;;
83682;SDS011;73663;51.298;5.802;2024-02-15T08:27:22;5.95;;;2.13;;
83682;SDS011;73663;51.298;5.802;2024-02-15T08:32:29;8.07;;;2.15;;
83682;SDS011;73663;51.298;5.802;2024-02-15T08:37:37;15.98;;;6.80;;
83682;SDS011;73663;51.298;5.802;2024-02-15T08:42:45;18.83;;;7.40;;
83682;SDS011;73663;51.298;5.802;2024-02-15T08:47:52;6.75;;;3.08;;
83682;SDS011;73663;51.298;5.802;2024-02-15T08:53:00;4.75;;;2.20;;
83682;SDS011;73663;51.298;5.802;2024-02-15T08:58:08;4.55;;;2.05;;
83682;SDS011;73663;51.298;5.802;2024-02-15T09:03:16;6.43;;;2.80;;
83682;SDS011;73663;51.298;5.802;2024-02-15T09:08:23;5.35;;;1.70;;
83682;SDS011;73663;51.298;5.802;2024-02-15T09:13:32;8.30;;;2.00;;
83682;SDS011;73663;51.298;5.802;2024-02-15T09:18:39;5.35;;;1.88;;
83682;SDS011;73663;51.298;5.802;2024-02-15T09:23:47;5.70;;;1.45;;
83682;SDS011;73663;51.298;5.802;2024-02-15T09:28:55;7.40;;;1.70;;
83682;SDS011;73663;51.298;5.802;2024-02-15T09:34:03;6.93;;;1.92;;
83682;SDS011;73663;51.298;5.802;2024-02-15T09:39:10;4.05;;;1.58;;
83682;SDS011;73663;51.298;5.802;2024-02-15T09:44:18;5.43;;;1.52;;
83682;SDS011;73663;51.298;5.802;2024-02-15T09:49:26;4.90;;;1.35;;
83682;SDS011;73663;51.298;5.802;2024-02-15T09:54:34;4.13;;;1.80;;
83682;SDS011;73663;51.298;5.802;2024-02-15T09:59:43;4.07;;;1.33;;
83682;SDS011;73663;51.298;5.802;2024-02-15T10:04:51;2.40;;;1.02;;
83682;SDS011;73663;51.298;5.802;2024-02-15T10:10:13;3.47;;;1.15;;
83682;SDS011;73663;51.298;5.802;2024-02-15T10:15:37;2.45;;;0.90;;
83682;SDS011;73663;51.298;5.802;2024-02-15T10:20:45;4.15;;;1.05;;
83682;SDS011;73663;51.298;5.802;2024-02-15T10:26:07;3.95;;;1.20;;
83682;SDS011;73663;51.298;5.802;2024-02-15T10:31:26;4.40;;;1.33;;
83682;SDS011;73663;51.298;5.802;2024-02-15T10:36:34;3.25;;;1.15;;
83682;SDS011;73663;51.298;5.802;2024-02-15T10:41:42;2.72;;;1.00;;
83682;SDS011;73663;51.298;5.802;2024-02-15T10:46:53;3.30;;;0.95;;
83682;SDS011;73663;51.298;5.802;2024-02-15T10:52:00;2.30;;;1.25;;
83682;SDS011;73663;51.298;5.802;2024-02-15T10:57:09;5.75;;;1.00;;
83682;SDS011;73663;51.298;5.802;2024-02-15T11:02:29;4.45;;;0.95;;
83682;SDS011;73663;51.298;5.802;2024-02-15T11:07:38;2.50;;;0.80;;
83682;SDS011;73663;51.298;5.802;2024-02-15T11:12:46;2.47;;;0.88;;
83682;SDS011;73663;51.298;5.802;2024-02-15T11:17:54;3.92;;;1.00;;
83682;SDS011;73663;51.298;5.802;2024-02-15T11:23:02;3.45;;;1.00;;
83682;SDS011;73663;51.298;5.802;2024-02-15T11:28:41;2.83;;;0.90;;
83682;SDS011;73663;51.298;5.802;2024-02-15T11:33:52;3.75;;;1.50;;
83682;SDS011;73663;51.298;5.802;2024-02-15T11:39:00;4.25;;;1.17;;
83682;SDS011;73663;51.298;5.802;2024-02-15T11:44:26;3.25;;;1.60;;
83682;SDS011;73663;51.298;5.802;2024-02-15T11:49:34;2.35;;;0.70;;
83682;SDS011;73663;51.298;5.802;2024-02-15T11:54:42;3.47;;;1.02;;
83682;SDS011;73663;51.298;5.802;2024-02-15T11:59:51;3.13;;;0.80;;
83682;SDS011;73663;51.298;5.802;2024-02-15T12:05:15;2.97;;;0.60;;
83682;SDS011;73663;51.298;5.802;2024-02-15T12:10:40;5.47;;;1.15;;
83682;SDS011;73663;51.298;5.802;2024-02-15T12:16:04;3.35;;;1.35;;
83682;SDS011;73663;51.298;5.802;2024-02-15T12:21:28;2.88;;;0.95;;
83682;SDS011;73663;51.298;5.802;2024-02-15T12:26:36;2.85;;;0.88;;
83682;SDS011;73663;51.298;5.802;2024-02-15T12:31:44;5.93;;;1.20;;
83682;SDS011;73663;51.298;5.802;2024-02-15T12:37:04;4.18;;;1.80;;
83682;SDS011;73663;51.298;5.802;2024-02-15T12:42:11;2.78;;;0.90;;
83682;SDS011;73663;51.298;5.802;2024-02-15T12:47:19;3.63;;;1.02;;
83682;SDS011;73663;51.298;5.802;2024-02-15T12:52:39;2.67;;;1.00;;
83682;SDS011;73663;51.298;5.802;2024-02-15T12:57:49;4.53;;;1.25;;
83682;SDS011;73663;51.298;5.802;2024-02-15T13:02:58;2.53;;;1.10;;
83682;SDS011;73663;51.298;5.802;2024-02-15T13:08:07;2.75;;;0.70;;
83682;SDS011;73663;51.298;5.802;2024-02-15T13:13:15;2.88;;;0.88;;
83682;SDS011;73663;51.298;5.802;2024-02-15T13:18:22;3.97;;;0.95;;
83682;SDS011;73663;51.298;5.802;2024-02-15T13:23:30;2.65;;;0.80;;
83682;SDS011;73663;51.298;5.802;2024-02-15T13:28:38;2.55;;;1.15;;
83682;SDS011;73663;51.298;5.802;2024-02-15T13:38:51;4.10;;;1.20;;
83682;SDS011;73663;51.298;5.802;2024-02-15T13:43:59;2.05;;;0.60;;
83682;SDS011;73663;51.298;5.802;2024-02-15T13:49:07;3.58;;;1.02;;
83682;SDS011;73663;51.298;5.802;2024-02-15T13:54:15;3.65;;;1.02;;
83682;SDS011;73663;51.298;5.802;2024-02-15T13:59:22;2.83;;;0.80;;
83682;SDS011;73663;51.298;5.802;2024-02-15T14:04:30;2.83;;;1.10;;
83682;SDS011;73663;51.298;5.802;2024-02-15T14:09:37;5.97;;;1.00;;
83682;SDS011;73663;51.298;5.802;2024-02-15T14:14:45;4.40;;;0.63;;
83682;SDS011;73663;51.298;5.802;2024-02-15T14:19:52;3.05;;;1.02;;
83682;SDS011;73663;51.298;5.802;2024-02-15T14:25:00;1.15;;;0.63;;
83682;SDS011;73663;51.298;5.802;2024-02-15T14:30:07;14.82;;;6.25;;
83682;SDS011;73663;51.298;5.802;2024-02-15T14:35:34;3.60;;;1.27;;
83682;SDS011;73663;51.298;5.802;2024-02-15T14:40:42;2.20;;;0.80;;
83682;SDS011;73663;51.298;5.802;2024-02-15T14:45:53;1.98;;;0.80;;
83682;SDS011;73663;51.298;5.802;2024-02-15T14:51:03;3.50;;;0.95;;
83682;SDS011;73663;51.298;5.802;2024-02-15T14:56:11;2.95;;;0.98;;
83682;SDS011;73663;51.298;5.802;2024-02-15T15:01:19;1.90;;;0.90;;
83682;SDS011;73663;51.298;5.802;2024-02-15T15:06:26;3.15;;;1.08;;
83682;SDS011;73663;51.298;5.802;2024-02-15T15:11:50;3.92;;;2.15;;
83682;SDS011;73663;51.298;5.802;2024-02-15T15:17:14;2.65;;;1.10;;
83682;SDS011;73663;51.298;5.802;2024-02-15T15:22:23;4.03;;;1.00;;
83682;SDS011;73663;51.298;5.802;2024-02-15T15:27:31;3.33;;;1.00;;
83682;SDS011;73663;51.298;5.802;2024-02-15T15:32:39;3.65;;;1.00;;
83682;SDS011;73663;51.298;5.802;2024-02-15T15:37:47;1.52;;;0.80;;
83682;SDS011;73663;51.298;5.802;2024-02-15T15:42:57;2.75;;;1.10;;
83682;SDS011;73663;51.298;5.802;2024-02-15T15:48:05;5.05;;;1.00;;
83682;SDS011;73663;51.298;5.802;2024-02-15T15:53:12;2.33;;;0.80;;
83682;SDS011;73663;51.298;5.802;2024-02-15T15:58:20;1.27;;;0.68;;
83682;SDS011;73663;51.298;5.802;2024-02-15T16:03:27;2.67;;;0.88;;
83682;SDS011;73663;51.298;5.802;2024-02-15T16:08:35;2.88;;;0.90;;
83682;SDS011;73663;51.298;5.802;2024-02-15T16:13:42;5.18;;;0.90;;
83682;SDS011;73663;51.298;5.802;2024-02-15T16:18:50;1.92;;;0.80;;
83682;SDS011;73663;51.298;5.802;2024-02-15T16:23:57;2.72;;;1.00;;
83682;SDS011;73663;51.298;5.802;2024-02-15T16:29:05;2.75;;;0.65;;
83682;SDS011;73663;51.298;5.802;2024-02-15T16:34:12;3.35;;;0.80;;
83682;SDS011;73663;51.298;5.802;2024-02-15T16:39:20;2.60;;;0.85;;
83682;SDS011;73663;51.298;5.802;2024-02-15T16:44:28;1.25;;;0.70;;
83682;SDS011;73663;51.298;5.802;2024-02-15T16:49:35;2.80;;;1.05;;
83682;SDS011;73663;51.298;5.802;2024-02-15T16:54:43;3.22;;;0.93;;
83682;SDS011;73663;51.298;5.802;2024-02-15T16:59:50;2.00;;;0.93;;
83682;SDS011;73663;51.298;5.802;2024-02-15T17:04:58;2.03;;;1.20;;
83682;SDS011;73663;51.298;5.802;2024-02-15T17:10:05;4.00;;;2.17;;
83682;SDS011;73663;51.298;5.802;2024-02-15T17:15:13;3.97;;;1.70;;
83682;SDS011;73663;51.298;5.802;2024-02-15T17:20:21;5.82;;;3.00;;
83682;SDS011;73663;51.298;5.802;2024-02-15T17:25:28;3.95;;;1.80;;
83682;SDS011;73663;51.298;5.802;2024-02-15T17:30:36;11.63;;;6.70;;
83682;SDS011;73663;51.298;5.802;2024-02-15T17:35:43;12.10;;;7.28;;
83682;SDS011;73663;51.298;5.802;2024-02-15T17:40:55;7.70;;;3.63;;
83682;SDS011;73663;51.298;5.802;2024-02-15T17:46:02;14.20;;;7.32;;
83682;SDS011;73663;51.298;5.802;2024-02-15T17:51:10;11.90;;;5.60;;
83682;SDS011;73663;51.298;5.802;2024-02-15T17:56:17;10.10;;;5.88;;
83682;SDS011;73663;51.298;5.802;2024-02-15T18:01:26;2.38;;;1.05;;
83682;SDS011;73663;51.298;5.802;2024-02-15T18:06:33;2.28;;;1.13;;
83682;SDS011;73663;51.298;5.802;2024-02-15T18:11:41;2.65;;;1.30;;
83682;SDS011;73663;51.298;5.802;2024-02-15T18:16:48;2.20;;;1.23;;
83682;SDS011;73663;51.298;5.802;2024-02-15T18:21:56;3.63;;;1.63;;
83682;SDS011;73663;51.298;5.802;2024-02-15T18:27:03;4.85;;;1.50;;
83682;SDS011;73663;51.298;5.802;2024-02-15T18:32:11;2.10;;;1.33;;
83682;SDS011;73663;51.298;5.802;2024-02-15T18:37:19;2.50;;;1.38;;
83682;SDS011;73663;51.298;5.802;2024-02-15T18:42:27;4.93;;;1.50;;
83682;SDS011;73663;51.298;5.802;2024-02-15T18:47:34;4.50;;;1.25;;
83682;SDS011;73663;51.298;5.802;2024-02-15T18:52:42;1.90;;;1.23;;
83682;SDS011;73663;51.298;5.802;2024-02-15T18:57:49;4.63;;;1.48;;
83682;SDS011;73663;51.298;5.802;2024-02-15T19:02:56;3.47;;;1.73;;
83682;SDS011;73663;51.298;5.802;2024-02-15T19:08:04;4.43;;;1.60;;
83682;SDS011;73663;51.298;5.802;2024-02-15T19:13:11;3.92;;;1.58;;
83682;SDS011;73663;51.298;5.802;2024-02-15T19:18:19;2.92;;;1.80;;
83682;SDS011;73663;51.298;5.802;2024-02-15T19:23:26;6.13;;;1.60;;
83682;SDS011;73663;51.298;5.802;2024-02-15T19:28:34;4.43;;;1.60;;
83682;SDS011;73663;51.298;5.802;2024-02-15T19:33:41;5.88;;;3.15;;
83682;SDS011;73663;51.298;5.802;2024-02-15T19:38:49;4.47;;;2.30;;
83682;SDS011;73663;51.298;5.802;2024-02-15T19:43:56;5.68;;;2.00;;
83682;SDS011;73663;51.298;5.802;2024-02-15T19:49:04;4.85;;;2.90;;
83682;SDS011;73663;51.298;5.802;2024-02-15T19:54:12;38.85;;;19.27;;
83682;SDS011;73663;51.298;5.802;2024-02-15T19:59:19;24.45;;;14.13;;
83682;SDS011;73663;51.298;5.802;2024-02-15T20:04:27;12.57;;;6.88;;
83682;SDS011;73663;51.298;5.802;2024-02-15T20:09:38;8.75;;;5.75;;
83682;SDS011;73663;51.298;5.802;2024-02-15T20:14:45;7.05;;;3.95;;
83682;SDS011;73663;51.298;5.802;2024-02-15T20:19:53;5.93;;;3.50;;
83682;SDS011;73663;51.298;5.802;2024-02-15T20:25:00;5.85;;;3.40;;
83682;SDS011;73663;51.298;5.802;2024-02-15T20:30:08;5.88;;;2.30;;
83682;SDS011;73663;51.298;5.802;2024-02-15T20:35:15;4.18;;;2.33;;
83682;SDS011;73663;51.298;5.802;2024-02-15T20:40:23;19.98;;;9.98;;
83682;SDS011;73663;51.298;5.802;2024-02-15T20:45:30;5.53;;;2.95;;
83682;SDS011;73663;51.298;5.802;2024-02-15T20:50:38;6.93;;;4.00;;
83682;SDS011;73663;51.298;5.802;2024-02-15T20:55:45;4.68;;;2.72;;
83682;SDS011;73663;51.298;5.802;2024-02-15T21:00:54;6.13;;;2.60;;
83682;SDS011;73663;51.298;5.802;2024-02-15T21:06:01;5.85;;;1.88;;
83682;SDS011;73663;51.298;5.802;2024-02-15T21:11:09;5.40;;;2.00;;
83682;SDS011;73663;51.298;5.802;2024-02-15T21:16:17;3.63;;;2.30;;
83682;SDS011;73663;51.298;5.802;2024-02-15T21:21:24;5.85;;;1.95;;
83682;SDS011;73663;51.298;5.802;2024-02-15T21:26:32;5.32;;;2.15;;
83682;SDS011;73663;51.298;5.802;2024-02-15T21:31:45;4.05;;;2.40;;
83682;SDS011;73663;51.298;5.802;2024-02-15T21:36:53;4.55;;;2.63;;
83682;SDS011;73663;51.298;5.802;2024-02-15T21:42:00;5.10;;;2.70;;
83682;SDS011;73663;51.298;5.802;2024-02-15T21:47:08;5.85;;;2.97;;
83682;SDS011;73663;51.298;5.802;2024-02-15T21:52:15;4.78;;;1.92;;
83682;SDS011;73663;51.298;5.802;2024-02-15T21:57:23;4.45;;;2.10;;
83682;SDS011;73663;51.298;5.802;2024-02-15T22:02:30;4.18;;;1.90;;
83682;SDS011;73663;51.298;5.802;2024-02-15T22:07:38;3.97;;;1.60;;
83682;SDS011;73663;51.298;5.802;2024-02-15T22:12:45;3.47;;;1.73;;
83682;SDS011;73663;51.298;5.802;2024-02-15T22:17:53;5.88;;;1.95;;
83682;SDS011;73663;51.298;5.802;2024-02-15T22:23:01;4.28;;;1.80;;
83682;SDS011;73663;51.298;5.802;2024-02-15T22:28:08;3.63;;;1.88;;
83682;SDS011;73663;51.298;5.802;2024-02-15T22:33:16;5.65;;;1.73;;
83682;SDS011;73663;51.298;5.802;2024-02-15T22:38:23;3.60;;;1.65;;
83682;SDS011;73663;51.298;5.802;2024-02-15T22:43:31;4.50;;;1.83;;
83682;SDS011;73663;51.298;5.802;2024-02-15T22:48:38;3.97;;;1.67;;
83682;SDS011;73663;51.298;5.802;2024-02-15T22:53:46;3.60;;;1.92;;
83682;SDS011;73663;51.298;5.802;2024-02-15T22:58:53;2.42;;;1.58;;
83682;SDS011;73663;51.298;5.802;2024-02-15T23:04:01;4.82;;;1.70;;
83682;SDS011;73663;51.298;5.802;2024-02-15T23:09:08;4.07;;;1.50;;
83682;SDS011;73663;51.298;5.802;2024-02-15T23:14:16;3.92;;;1.83;;
83682;SDS011;73663;51.298;5.802;2024-02-15T23:19:23;4.55;;;2.30;;
83682;SDS011;73663;51.298;5.802;2024-02-15T23:24:31;4.93;;;1.83;;
83682;SDS011;73663;51.298;5.802;2024-02-15T23:29:38;6.75;;;1.90;;
83682;SDS011;73663;51.298;5.802;2024-02-15T23:34:46;5.00;;;1.98;;
83682;SDS011;73663;51.298;5.802;2024-02-15T23:39:53;6.30;;;2.20;;
83682;SDS011;73663;51.298;5.802;2024-02-15T23:45:17;3.25;;;1.90;;
83682;SDS011;73663;51.298;5.802;2024-02-15T23:50:25;3.05;;;1.70;;
83682;SDS011;73663;51.298;5.802;2024-02-15T23:55:33;4.97;;;2.00;;
